sensor_id;sensor_type;location;lat;lon;timestamp;P1;durP1;ratioP1;P2;durP2;ratioP2
35646;SDS011;28680;45.642;13.756;2023-02-15T00:02:02;67.68;;;38.50;;
35646;SDS011;28680;45.642;13.756;2023-02-15T00:04:28;73.55;;;39.83;;
35646;SDS011;28680;45.642;13.756;2023-02-15T00:07:11;76.05;;;38.92;;
35646;SDS011;28680;45.642;13.756;2023-02-15T00:09:38;72.60;;;40.15;;
35646;SDS011;28680;45.642;13.756;2023-02-15T00:12:04;72.95;;;40.05;;
35646;SDS011;28680;45.642;13.756;2023-02-15T00:14:30;75.30;;;41.00;;
35646;SDS011;28680;45.642;13.756;2023-02-15T00:16:56;71.97;;;38.95;;
35646;SDS011;28680;45.642;13.756;2023-02-15T00:19:24;70.63;;;37.92;;
35646;SDS011;28680;45.642;13.756;2023-02-15T00:21:51;71.70;;;39.08;;
35646;SDS011;28680;45.642;13.756;2023-02-15T00:24:17;68.68;;;37.08;;
35646;SDS011;28680;45.642;13.756;2023-02-15T00:26:45;65.97;;;34.70;;
35646;SDS011;28680;45.642;13.756;2023-02-15T00:29:12;63.15;;;33.38;;
35646;SDS011;28680;45.642;13.756;2023-02-15T00:31:41;62.38;;;32.10;;
35646;SDS011;28680;45.642;13.756;2023-02-15T00:34:10;57.50;;;31.75;;
35646;SDS011;28680;45.642;13.756;2023-02-15T00:36:51;61.65;;;33.13;;
35646;SDS011;28680;45.642;13.756;2023-02-15T00:39:17;58.25;;;33.40;;
35646;SDS011;28680;45.642;13.756;2023-02-15T00:41:44;61.88;;;34.05;;
35646;SDS011;28680;45.642;13.756;2023-02-15T00:44:11;66.88;;;35.80;;
35646;SDS011;28680;45.642;13.756;2023-02-15T00:46:39;64.43;;;36.00;;
35646;SDS011;28680;45.642;13.756;2023-02-15T00:49:05;68.40;;;36.40;;
35646;SDS011;28680;45.642;13.756;2023-02-15T00:51:31;65.43;;;37.10;;
35646;SDS011;28680;45.642;13.756;2023-02-15T00:53:58;63.65;;;36.90;;
35646;SDS011;28680;45.642;13.756;2023-02-15T00:56:24;75.25;;;38.67;;
35646;SDS011;28680;45.642;13.756;2023-02-15T00:58:50;77.15;;;40.20;;
35646;SDS011;28680;45.642;13.756;2023-02-15T01:01:16;70.63;;;39.42;;
35646;SDS011;28680;45.642;13.756;2023-02-15T01:03:46;71.97;;;40.13;;
35646;SDS011;28680;45.642;13.756;2023-02-15T01:06:13;73.07;;;41.00;;
35646;SDS011;28680;45.642;13.756;2023-02-15T01:08:40;76.82;;;39.65;;
35646;SDS011;28680;45.642;13.756;2023-02-15T01:11:08;76.65;;;42.38;;
35646;SDS011;28680;45.642;13.756;2023-02-15T01:13:37;77.22;;;42.05;;
35646;SDS011;28680;45.642;13.756;2023-02-15T01:16:04;79.82;;;44.17;;
35646;SDS011;28680;45.642;13.756;2023-02-15T01:18:30;80.72;;;45.53;;
35646;SDS011;28680;45.642;13.756;2023-02-15T01:20:57;78.85;;;44.67;;
35646;SDS011;28680;45.642;13.756;2023-02-15T01:23:23;74.97;;;41.65;;
35646;SDS011;28680;45.642;13.756;2023-02-15T01:25:49;77.65;;;40.50;;
35646;SDS011;28680;45.642;13.756;2023-02-15T01:28:15;73.00;;;40.85;;
35646;SDS011;28680;45.642;13.756;2023-02-15T01:30:41;82.32;;;44.25;;
35646;SDS011;28680;45.642;13.756;2023-02-15T01:33:07;71.47;;;39.25;;
35646;SDS011;28680;45.642;13.756;2023-02-15T01:35:32;73.07;;;38.40;;
35646;SDS011;28680;45.642;13.756;2023-02-15T01:37:58;70.75;;;38.20;;
35646;SDS011;28680;45.642;13.756;2023-02-15T01:40:24;70.72;;;38.17;;
35646;SDS011;28680;45.642;13.756;2023-02-15T01:42:51;74.75;;;40.15;;
35646;SDS011;28680;45.642;13.756;2023-02-15T01:45:24;72.38;;;38.95;;
35646;SDS011;28680;45.642;13.756;2023-02-15T01:48:04;73.80;;;38.63;;
35646;SDS011;28680;45.642;13.756;2023-02-15T01:50:43;69.97;;;39.47;;
35646;SDS011;28680;45.642;13.756;2023-02-15T01:53:23;76.88;;;39.97;;
35646;SDS011;28680;45.642;13.756;2023-02-15T01:55:54;76.20;;;40.65;;
35646;SDS011;28680;45.642;13.756;2023-02-15T01:58:25;77.95;;;40.40;;
35646;SDS011;28680;45.642;13.756;2023-02-15T02:00:54;74.55;;;40.58;;
35646;SDS011;28680;45.642;13.756;2023-02-15T02:03:24;69.68;;;38.95;;
35646;SDS011;28680;45.642;13.756;2023-02-15T02:06:23;76.30;;;40.67;;
35646;SDS011;28680;45.642;13.756;2023-02-15T02:08:51;70.57;;;40.17;;
35646;SDS011;28680;45.642;13.756;2023-02-15T02:11:18;73.82;;;39.22;;
35646;SDS011;28680;45.642;13.756;2023-02-15T02:13:44;71.10;;;39.22;;
35646;SDS011;28680;45.642;13.756;2023-02-15T02:40:06;68.55;;;37.25;;
35646;SDS011;28680;45.642;13.756;2023-02-15T02:42:39;70.75;;;37.88;;
35646;SDS011;28680;45.642;13.756;2023-02-15T02:45:14;64.28;;;35.70;;
35646;SDS011;28680;45.642;13.756;2023-02-15T02:47:48;69.72;;;37.08;;
35646;SDS011;28680;45.642;13.756;2023-02-15T02:50:22;72.70;;;36.97;;
35646;SDS011;28680;45.642;13.756;2023-02-15T02:52:53;61.75;;;33.88;;
35646;SDS011;28680;45.642;13.756;2023-02-15T02:55:23;68.60;;;37.35;;
35646;SDS011;28680;45.642;13.756;2023-02-15T02:58:01;74.68;;;39.90;;
35646;SDS011;28680;45.642;13.756;2023-02-15T03:00:47;72.05;;;39.90;;
35646;SDS011;28680;45.642;13.756;2023-02-15T03:06:07;83.88;;;44.35;;
35646;SDS011;28680;45.642;13.756;2023-02-15T03:08:45;83.10;;;44.33;;
35646;SDS011;28680;45.642;13.756;2023-02-15T03:11:21;77.30;;;41.22;;
35646;SDS011;28680;45.642;13.756;2023-02-15T03:13:47;75.95;;;40.05;;
35646;SDS011;28680;45.642;13.756;2023-02-15T03:16:15;76.97;;;40.30;;
35646;SDS011;28680;45.642;13.756;2023-02-15T03:21:47;78.20;;;42.13;;
35646;SDS011;28680;45.642;13.756;2023-02-15T03:24:23;75.40;;;40.60;;
35646;SDS011;28680;45.642;13.756;2023-02-15T03:26:57;73.35;;;39.45;;
35646;SDS011;28680;45.642;13.756;2023-02-15T03:29:24;74.82;;;39.72;;
35646;SDS011;28680;45.642;13.756;2023-02-15T03:32:03;72.60;;;39.60;;
35646;SDS011;28680;45.642;13.756;2023-02-15T03:34:34;70.43;;;39.30;;
35646;SDS011;28680;45.642;13.756;2023-02-15T03:37:03;73.13;;;38.90;;
35646;SDS011;28680;45.642;13.756;2023-02-15T03:40:00;82.18;;;40.40;;
35646;SDS011;28680;45.642;13.756;2023-02-15T03:43:12;78.18;;;40.13;;
35646;SDS011;28680;45.642;13.756;2023-02-15T03:45:47;75.95;;;39.35;;
35646;SDS011;28680;45.642;13.756;2023-02-15T03:48:27;65.18;;;37.05;;
35646;SDS011;28680;45.642;13.756;2023-02-15T03:51:02;68.35;;;37.95;;
35646;SDS011;28680;45.642;13.756;2023-02-15T03:53:56;70.03;;;36.70;;
35646;SDS011;28680;45.642;13.756;2023-02-15T03:56:23;65.53;;;36.38;;
35646;SDS011;28680;45.642;13.756;2023-02-15T03:58:50;70.05;;;37.63;;
35646;SDS011;28680;45.642;13.756;2023-02-15T04:04:39;67.63;;;37.88;;
35646;SDS011;28680;45.642;13.756;2023-02-15T04:07:09;67.25;;;37.45;;
35646;SDS011;28680;45.642;13.756;2023-02-15T04:09:35;67.88;;;38.38;;
35646;SDS011;28680;45.642;13.756;2023-02-15T04:12:20;70.95;;;38.15;;
35646;SDS011;28680;45.642;13.756;2023-02-15T04:14:46;68.88;;;38.63;;
35646;SDS011;28680;45.642;13.756;2023-02-15T04:17:31;69.35;;;38.60;;
35646;SDS011;28680;45.642;13.756;2023-02-15T04:19:57;69.65;;;39.20;;
35646;SDS011;28680;45.642;13.756;2023-02-15T04:22:41;78.65;;;41.58;;
35646;SDS011;28680;45.642;13.756;2023-02-15T04:25:26;73.18;;;40.35;;
35646;SDS011;28680;45.642;13.756;2023-02-15T04:27:53;80.53;;;43.08;;
35646;SDS011;28680;45.642;13.756;2023-02-15T04:30:20;78.32;;;42.67;;
35646;SDS011;28680;45.642;13.756;2023-02-15T04:32:49;81.85;;;43.28;;
35646;SDS011;28680;45.642;13.756;2023-02-15T04:35:16;76.82;;;42.67;;
35646;SDS011;28680;45.642;13.756;2023-02-15T04:37:45;76.40;;;42.15;;
35646;SDS011;28680;45.642;13.756;2023-02-15T04:40:12;88.68;;;44.15;;
35646;SDS011;28680;45.642;13.756;2023-02-15T04:42:39;82.68;;;44.67;;
35646;SDS011;28680;45.642;13.756;2023-02-15T04:45:06;82.15;;;44.50;;
35646;SDS011;28680;45.642;13.756;2023-02-15T04:47:33;86.95;;;45.85;;
35646;SDS011;28680;45.642;13.756;2023-02-15T04:49:59;81.05;;;43.70;;
35646;SDS011;28680;45.642;13.756;2023-02-15T04:52:25;88.53;;;47.78;;
35646;SDS011;28680;45.642;13.756;2023-02-15T04:54:51;84.55;;;46.40;;
35646;SDS011;28680;45.642;13.756;2023-02-15T04:57:17;88.32;;;48.13;;
35646;SDS011;28680;45.642;13.756;2023-02-15T04:59:43;87.85;;;46.72;;
35646;SDS011;28680;45.642;13.756;2023-02-15T05:02:09;91.22;;;47.85;;
35646;SDS011;28680;45.642;13.756;2023-02-15T05:04:34;87.65;;;47.55;;
35646;SDS011;28680;45.642;13.756;2023-02-15T05:07:00;87.80;;;46.92;;
35646;SDS011;28680;45.642;13.756;2023-02-15T05:09:26;84.90;;;46.67;;
35646;SDS011;28680;45.642;13.756;2023-02-15T05:11:52;90.15;;;46.65;;
35646;SDS011;28680;45.642;13.756;2023-02-15T05:14:18;88.35;;;47.97;;
35646;SDS011;28680;45.642;13.756;2023-02-15T05:16:44;89.93;;;46.90;;
35646;SDS011;28680;45.642;13.756;2023-02-15T05:19:10;98.30;;;48.95;;
35646;SDS011;28680;45.642;13.756;2023-02-15T05:21:36;84.40;;;46.13;;
35646;SDS011;28680;45.642;13.756;2023-02-15T05:24:02;90.05;;;48.25;;
35646;SDS011;28680;45.642;13.756;2023-02-15T05:26:48;91.60;;;48.35;;
35646;SDS011;28680;45.642;13.756;2023-02-15T05:29:33;97.20;;;50.05;;
35646;SDS011;28680;45.642;13.756;2023-02-15T05:31:58;94.78;;;49.17;;
35646;SDS011;28680;45.642;13.756;2023-02-15T05:34:24;91.65;;;49.33;;
35646;SDS011;28680;45.642;13.756;2023-02-15T05:36:50;88.55;;;48.10;;
35646;SDS011;28680;45.642;13.756;2023-02-15T05:39:16;99.15;;;47.67;;
35646;SDS011;28680;45.642;13.756;2023-02-15T05:41:42;85.97;;;45.38;;
35646;SDS011;28680;45.642;13.756;2023-02-15T05:44:07;87.05;;;46.95;;
35646;SDS011;28680;45.642;13.756;2023-02-15T05:46:33;88.68;;;47.92;;
35646;SDS011;28680;45.642;13.756;2023-02-15T05:48:59;86.68;;;46.35;;
35646;SDS011;28680;45.642;13.756;2023-02-15T05:51:25;96.63;;;46.50;;
35646;SDS011;28680;45.642;13.756;2023-02-15T05:53:51;89.13;;;46.55;;
35646;SDS011;28680;45.642;13.756;2023-02-15T05:56:17;83.63;;;44.90;;
35646;SDS011;28680;45.642;13.756;2023-02-15T05:58:42;91.57;;;46.88;;
35646;SDS011;28680;45.642;13.756;2023-02-15T06:01:15;86.85;;;46.22;;
35646;SDS011;28680;45.642;13.756;2023-02-15T06:03:44;85.10;;;46.45;;
35646;SDS011;28680;45.642;13.756;2023-02-15T06:06:11;89.32;;;46.97;;
35646;SDS011;28680;45.642;13.756;2023-02-15T06:08:37;83.95;;;45.55;;
35646;SDS011;28680;45.642;13.756;2023-02-15T06:11:04;89.78;;;48.42;;
35646;SDS011;28680;45.642;13.756;2023-02-15T06:13:31;92.00;;;47.58;;
35646;SDS011;28680;45.642;13.756;2023-02-15T06:15:58;89.95;;;46.47;;
35646;SDS011;28680;45.642;13.756;2023-02-15T06:18:24;90.53;;;47.10;;
35646;SDS011;28680;45.642;13.756;2023-02-15T06:20:50;92.85;;;48.83;;
35646;SDS011;28680;45.642;13.756;2023-02-15T06:23:17;95.55;;;49.15;;
35646;SDS011;28680;45.642;13.756;2023-02-15T06:25:44;88.95;;;47.60;;
35646;SDS011;28680;45.642;13.756;2023-02-15T06:28:11;88.43;;;48.40;;
35646;SDS011;28680;45.642;13.756;2023-02-15T06:30:37;90.28;;;48.58;;
35646;SDS011;28680;45.642;13.756;2023-02-15T06:33:03;93.40;;;47.65;;
35646;SDS011;28680;45.642;13.756;2023-02-15T06:35:29;93.07;;;49.95;;
35646;SDS011;28680;45.642;13.756;2023-02-15T06:37:54;91.13;;;48.00;;
35646;SDS011;28680;45.642;13.756;2023-02-15T06:40:20;96.38;;;49.20;;
35646;SDS011;28680;45.642;13.756;2023-02-15T06:42:46;95.93;;;49.33;;
35646;SDS011;28680;45.642;13.756;2023-02-15T06:45:12;95.07;;;49.65;;
35646;SDS011;28680;45.642;13.756;2023-02-15T06:47:38;95.60;;;48.55;;
35646;SDS011;28680;45.642;13.756;2023-02-15T06:50:05;96.35;;;49.53;;
35646;SDS011;28680;45.642;13.756;2023-02-15T06:52:32;99.70;;;50.75;;
35646;SDS011;28680;45.642;13.756;2023-02-15T06:54:58;106.97;;;52.97;;
35646;SDS011;28680;45.642;13.756;2023-02-15T06:57:24;108.00;;;54.13;;
35646;SDS011;28680;45.642;13.756;2023-02-15T06:59:50;102.95;;;53.28;;
35646;SDS011;28680;45.642;13.756;2023-02-15T07:02:17;103.53;;;52.85;;
35646;SDS011;28680;45.642;13.756;2023-02-15T07:04:42;100.05;;;52.10;;
35646;SDS011;28680;45.642;13.756;2023-02-15T07:07:10;115.18;;;57.47;;
35646;SDS011;28680;45.642;13.756;2023-02-15T07:09:37;108.07;;;57.10;;
35646;SDS011;28680;45.642;13.756;2023-02-15T07:12:04;115.88;;;60.80;;
35646;SDS011;28680;45.642;13.756;2023-02-15T07:14:49;118.25;;;61.10;;
35646;SDS011;28680;45.642;13.756;2023-02-15T07:17:15;120.43;;;62.75;;
35646;SDS011;28680;45.642;13.756;2023-02-15T07:19:42;121.55;;;63.83;;
35646;SDS011;28680;45.642;13.756;2023-02-15T07:22:08;128.63;;;66.45;;
35646;SDS011;28680;45.642;13.756;2023-02-15T07:24:34;122.45;;;65.38;;
35646;SDS011;28680;45.642;13.756;2023-02-15T07:27:00;120.43;;;63.90;;
35646;SDS011;28680;45.642;13.756;2023-02-15T07:29:25;123.85;;;63.55;;
35646;SDS011;28680;45.642;13.756;2023-02-15T07:31:51;121.50;;;64.18;;
35646;SDS011;28680;45.642;13.756;2023-02-15T07:34:17;113.65;;;59.65;;
35646;SDS011;28680;45.642;13.756;2023-02-15T07:36:43;107.13;;;57.50;;
35646;SDS011;28680;45.642;13.756;2023-02-15T07:39:09;105.28;;;57.45;;
35646;SDS011;28680;45.642;13.756;2023-02-15T07:41:37;115.30;;;59.75;;
35646;SDS011;28680;45.642;13.756;2023-02-15T07:44:03;103.75;;;56.08;;
35646;SDS011;28680;45.642;13.756;2023-02-15T07:46:29;106.93;;;56.60;;
35646;SDS011;28680;45.642;13.756;2023-02-15T07:48:55;101.20;;;54.67;;
35646;SDS011;28680;45.642;13.756;2023-02-15T07:51:21;95.63;;;52.58;;
35646;SDS011;28680;45.642;13.756;2023-02-15T07:53:47;97.30;;;53.00;;
35646;SDS011;28680;45.642;13.756;2023-02-15T07:56:13;99.00;;;54.78;;
35646;SDS011;28680;45.642;13.756;2023-02-15T07:58:40;101.30;;;54.83;;
35646;SDS011;28680;45.642;13.756;2023-02-15T08:08:15;104.63;;;56.72;;
35646;SDS011;28680;45.642;13.756;2023-02-15T08:11:01;103.78;;;56.38;;
35646;SDS011;28680;45.642;13.756;2023-02-15T08:13:54;103.68;;;55.60;;
35646;SDS011;28680;45.642;13.756;2023-02-15T08:19:11;93.15;;;53.22;;
35646;SDS011;28680;45.642;13.756;2023-02-15T08:21:46;93.55;;;48.13;;
35646;SDS011;28680;45.642;13.756;2023-02-15T08:24:15;92.32;;;52.22;;
35646;SDS011;28680;45.642;13.756;2023-02-15T08:29:20;89.70;;;49.60;;
35646;SDS011;28680;45.642;13.756;2023-02-15T08:31:49;86.93;;;49.83;;
35646;SDS011;28680;45.642;13.756;2023-02-15T08:34:19;78.25;;;46.60;;
35646;SDS011;28680;45.642;13.756;2023-02-15T08:36:46;86.88;;;48.78;;
35646;SDS011;28680;45.642;13.756;2023-02-15T08:39:12;84.45;;;45.72;;
35646;SDS011;28680;45.642;13.756;2023-02-15T08:41:42;83.60;;;48.28;;
35646;SDS011;28680;45.642;13.756;2023-02-15T08:44:10;74.53;;;45.35;;
35646;SDS011;28680;45.642;13.756;2023-02-15T08:46:38;79.25;;;43.90;;
35646;SDS011;28680;45.642;13.756;2023-02-15T08:49:06;80.22;;;44.55;;
35646;SDS011;28680;45.642;13.756;2023-02-15T08:51:34;74.90;;;43.28;;
35646;SDS011;28680;45.642;13.756;2023-02-15T08:54:05;78.15;;;44.80;;
35646;SDS011;28680;45.642;13.756;2023-02-15T08:56:38;80.18;;;46.95;;
35646;SDS011;28680;45.642;13.756;2023-02-15T08:59:06;79.70;;;46.63;;
35646;SDS011;28680;45.642;13.756;2023-02-15T09:01:39;63.92;;;39.10;;
35646;SDS011;28680;45.642;13.756;2023-02-15T09:04:05;57.35;;;35.58;;
35646;SDS011;28680;45.642;13.756;2023-02-15T09:06:37;73.18;;;43.85;;
35646;SDS011;28680;45.642;13.756;2023-02-15T09:09:05;51.15;;;32.10;;
35646;SDS011;28680;45.642;13.756;2023-02-15T09:11:40;57.22;;;34.75;;
35646;SDS011;28680;45.642;13.756;2023-02-15T09:14:16;78.85;;;45.55;;
35646;SDS011;28680;45.642;13.756;2023-02-15T09:16:48;71.57;;;43.35;;
35646;SDS011;28680;45.642;13.756;2023-02-15T09:19:16;83.90;;;49.70;;
35646;SDS011;28680;45.642;13.756;2023-02-15T09:21:45;84.38;;;50.42;;
35646;SDS011;28680;45.642;13.756;2023-02-15T09:24:12;64.15;;;41.10;;
35646;SDS011;28680;45.642;13.756;2023-02-15T09:26:41;77.82;;;46.92;;
35646;SDS011;28680;45.642;13.756;2023-02-15T09:29:10;79.70;;;46.88;;
35646;SDS011;28680;45.642;13.756;2023-02-15T09:31:42;75.90;;;46.13;;
35646;SDS011;28680;45.642;13.756;2023-02-15T09:34:14;66.90;;;40.13;;
35646;SDS011;28680;45.642;13.756;2023-02-15T09:36:44;81.25;;;46.97;;
35646;SDS011;28680;45.642;13.756;2023-02-15T09:39:12;74.15;;;43.72;;
35646;SDS011;28680;45.642;13.756;2023-02-15T09:48:20;59.88;;;34.45;;
35646;SDS011;28680;45.642;13.756;2023-02-15T09:54:22;63.63;;;37.53;;
35646;SDS011;28680;45.642;13.756;2023-02-15T09:57:47;57.92;;;35.22;;
35646;SDS011;28680;45.642;13.756;2023-02-15T10:11:57;65.55;;;41.63;;
35646;SDS011;28680;45.642;13.756;2023-02-15T10:29:16;66.55;;;40.20;;
35646;SDS011;28680;45.642;13.756;2023-02-15T10:32:17;69.40;;;42.58;;
35646;SDS011;28680;45.642;13.756;2023-02-15T10:37:35;65.28;;;40.80;;
35646;SDS011;28680;45.642;13.756;2023-02-15T10:52:07;64.25;;;42.58;;
35646;SDS011;28680;45.642;13.756;2023-02-15T11:00:44;65.40;;;42.25;;
35646;SDS011;28680;45.642;13.756;2023-02-15T11:06:17;62.28;;;40.25;;
35646;SDS011;28680;45.642;13.756;2023-02-15T11:09:04;63.33;;;41.78;;
35646;SDS011;28680;45.642;13.756;2023-02-15T11:11:38;64.47;;;40.10;;
35646;SDS011;28680;45.642;13.756;2023-02-15T11:14:12;64.20;;;40.95;;
35646;SDS011;28680;45.642;13.756;2023-02-15T11:16:46;62.92;;;41.80;;
35646;SDS011;28680;45.642;13.756;2023-02-15T11:19:26;65.30;;;40.05;;
35646;SDS011;28680;45.642;13.756;2023-02-15T11:21:59;61.50;;;40.58;;
35646;SDS011;28680;45.642;13.756;2023-02-15T11:24:29;68.20;;;43.58;;
35646;SDS011;28680;45.642;13.756;2023-02-15T11:27:03;72.18;;;45.67;;
35646;SDS011;28680;45.642;13.756;2023-02-15T11:32:38;67.10;;;45.22;;
35646;SDS011;28680;45.642;13.756;2023-02-15T11:40:36;68.90;;;44.47;;
35646;SDS011;28680;45.642;13.756;2023-02-15T11:43:43;67.30;;;44.30;;
35646;SDS011;28680;45.642;13.756;2023-02-15T11:46:33;66.82;;;44.05;;
35646;SDS011;28680;45.642;13.756;2023-02-15T11:48:59;63.05;;;41.30;;
35646;SDS011;28680;45.642;13.756;2023-02-15T11:51:25;68.22;;;43.05;;
35646;SDS011;28680;45.642;13.756;2023-02-15T11:53:53;61.67;;;41.60;;
35646;SDS011;28680;45.642;13.756;2023-02-15T11:56:23;66.75;;;44.22;;
35646;SDS011;28680;45.642;13.756;2023-02-15T11:58:55;67.40;;;45.20;;
35646;SDS011;28680;45.642;13.756;2023-02-15T12:01:29;71.57;;;46.45;;
35646;SDS011;28680;45.642;13.756;2023-02-15T12:12:34;70.03;;;45.45;;
35646;SDS011;28680;45.642;13.756;2023-02-15T12:15:05;63.22;;;42.63;;
35646;SDS011;28680;45.642;13.756;2023-02-15T12:17:38;63.67;;;42.40;;
35646;SDS011;28680;45.642;13.756;2023-02-15T12:22:51;56.53;;;37.00;;
35646;SDS011;28680;45.642;13.756;2023-02-15T12:25:33;59.88;;;38.72;;
35646;SDS011;28680;45.642;13.756;2023-02-15T12:31:07;59.40;;;38.35;;
35646;SDS011;28680;45.642;13.756;2023-02-15T12:33:56;62.05;;;40.45;;
35646;SDS011;28680;45.642;13.756;2023-02-15T12:36:30;61.33;;;38.28;;
35646;SDS011;28680;45.642;13.756;2023-02-15T12:41:38;61.97;;;40.25;;
35646;SDS011;28680;45.642;13.756;2023-02-15T12:44:47;65.70;;;42.38;;
35646;SDS011;28680;45.642;13.756;2023-02-15T12:51:08;63.20;;;42.70;;
35646;SDS011;28680;45.642;13.756;2023-02-15T12:53:38;68.32;;;45.50;;
35646;SDS011;28680;45.642;13.756;2023-02-15T12:56:18;67.00;;;45.60;;
35646;SDS011;28680;45.642;13.756;2023-02-15T12:58:52;67.95;;;46.17;;
35646;SDS011;28680;45.642;13.756;2023-02-15T13:04:46;65.85;;;43.40;;
35646;SDS011;28680;45.642;13.756;2023-02-15T13:07:30;67.22;;;45.70;;
35646;SDS011;28680;45.642;13.756;2023-02-15T13:09:57;73.18;;;45.95;;
35646;SDS011;28680;45.642;13.756;2023-02-15T13:12:24;62.97;;;42.08;;
35646;SDS011;28680;45.642;13.756;2023-02-15T13:14:56;65.45;;;41.45;;
35646;SDS011;28680;45.642;13.756;2023-02-15T13:17:28;64.75;;;41.97;;
35646;SDS011;28680;45.642;13.756;2023-02-15T13:20:00;61.00;;;40.95;;
35646;SDS011;28680;45.642;13.756;2023-02-15T13:22:47;63.78;;;40.92;;
35646;SDS011;28680;45.642;13.756;2023-02-15T13:25:25;66.40;;;39.75;;
35646;SDS011;28680;45.642;13.756;2023-02-15T13:28:01;60.88;;;38.88;;
35646;SDS011;28680;45.642;13.756;2023-02-15T13:30:34;62.03;;;37.10;;
35646;SDS011;28680;45.642;13.756;2023-02-15T13:33:04;58.42;;;34.72;;
35646;SDS011;28680;45.642;13.756;2023-02-15T13:35:42;59.60;;;35.10;;
35646;SDS011;28680;45.642;13.756;2023-02-15T13:41:45;58.20;;;31.67;;
35646;SDS011;28680;45.642;13.756;2023-02-15T13:44:33;59.55;;;34.60;;
35646;SDS011;28680;45.642;13.756;2023-02-15T13:53:41;51.05;;;30.83;;
35646;SDS011;28680;45.642;13.756;2023-02-15T13:59:51;61.55;;;37.20;;
35646;SDS011;28680;45.642;13.756;2023-02-15T14:24:58;61.70;;;35.63;;
35646;SDS011;28680;45.642;13.756;2023-02-15T14:28:20;55.50;;;34.72;;
35646;SDS011;28680;45.642;13.756;2023-02-15T14:31:11;56.30;;;34.05;;
35646;SDS011;28680;45.642;13.756;2023-02-15T14:33:40;65.20;;;40.63;;
35646;SDS011;28680;45.642;13.756;2023-02-15T14:36:16;73.75;;;43.05;;
35646;SDS011;28680;45.642;13.756;2023-02-15T14:42:27;61.65;;;41.30;;
35646;SDS011;28680;45.642;13.756;2023-02-15T14:45:27;70.78;;;45.58;;
35646;SDS011;28680;45.642;13.756;2023-02-15T14:48:38;69.15;;;45.95;;
35646;SDS011;28680;45.642;13.756;2023-02-15T14:51:05;63.60;;;42.13;;
35646;SDS011;28680;45.642;13.756;2023-02-15T15:01:50;76.68;;;48.17;;
35646;SDS011;28680;45.642;13.756;2023-02-15T15:07:37;73.18;;;47.03;;
35646;SDS011;28680;45.642;13.756;2023-02-15T15:15:44;71.25;;;47.90;;
35646;SDS011;28680;45.642;13.756;2023-02-15T15:41:38;78.50;;;50.05;;
35646;SDS011;28680;45.642;13.756;2023-02-15T15:47:32;79.15;;;49.63;;
35646;SDS011;28680;45.642;13.756;2023-02-15T15:50:26;78.40;;;50.20;;
35646;SDS011;28680;45.642;13.756;2023-02-15T15:52:53;83.28;;;52.45;;
35646;SDS011;28680;45.642;13.756;2023-02-15T15:55:24;83.75;;;52.20;;
35646;SDS011;28680;45.642;13.756;2023-02-15T15:57:53;78.47;;;50.20;;
35646;SDS011;28680;45.642;13.756;2023-02-15T16:08:44;80.30;;;50.20;;
35646;SDS011;28680;45.642;13.756;2023-02-15T16:11:26;80.10;;;50.65;;
35646;SDS011;28680;45.642;13.756;2023-02-15T16:13:54;80.60;;;50.47;;
35646;SDS011;28680;45.642;13.756;2023-02-15T16:16:22;83.45;;;51.33;;
35646;SDS011;28680;45.642;13.756;2023-02-15T16:22:12;80.38;;;50.35;;
35646;SDS011;28680;45.642;13.756;2023-02-15T16:27:40;81.80;;;48.30;;
35646;SDS011;28680;45.642;13.756;2023-02-15T16:30:32;74.57;;;47.38;;
35646;SDS011;28680;45.642;13.756;2023-02-15T16:33:08;74.32;;;46.60;;
35646;SDS011;28680;45.642;13.756;2023-02-15T16:35:41;69.95;;;44.38;;
35646;SDS011;28680;45.642;13.756;2023-02-15T16:39:20;73.65;;;46.50;;
35646;SDS011;28680;45.642;13.756;2023-02-15T16:43:52;78.70;;;46.38;;
35646;SDS011;28680;45.642;13.756;2023-02-15T16:49:27;76.75;;;46.72;;
35646;SDS011;28680;45.642;13.756;2023-02-15T16:51:55;77.28;;;48.10;;
35646;SDS011;28680;45.642;13.756;2023-02-15T16:54:26;77.65;;;45.50;;
35646;SDS011;28680;45.642;13.756;2023-02-15T16:56:54;74.13;;;45.60;;
35646;SDS011;28680;45.642;13.756;2023-02-15T16:59:28;78.13;;;48.33;;
35646;SDS011;28680;45.642;13.756;2023-02-15T17:02:12;80.70;;;46.70;;
35646;SDS011;28680;45.642;13.756;2023-02-15T17:05:06;73.55;;;45.47;;
35646;SDS011;28680;45.642;13.756;2023-02-15T17:07:48;71.10;;;44.25;;
35646;SDS011;28680;45.642;13.756;2023-02-15T17:13:37;65.90;;;41.63;;
35646;SDS011;28680;45.642;13.756;2023-02-15T17:18:30;72.60;;;45.35;;
35646;SDS011;28680;45.642;13.756;2023-02-15T17:21:18;77.15;;;45.20;;
35646;SDS011;28680;45.642;13.756;2023-02-15T17:23:50;75.30;;;45.03;;
35646;SDS011;28680;45.642;13.756;2023-02-15T17:26:26;75.68;;;46.65;;
35646;SDS011;28680;45.642;13.756;2023-02-15T17:28:59;81.47;;;48.70;;
35646;SDS011;28680;45.642;13.756;2023-02-15T17:31:54;85.35;;;47.70;;
35646;SDS011;28680;45.642;13.756;2023-02-15T17:35:26;82.85;;;48.70;;
35646;SDS011;28680;45.642;13.756;2023-02-15T17:40:05;88.78;;;51.42;;
35646;SDS011;28680;45.642;13.756;2023-02-15T17:42:45;86.60;;;50.20;;
35646;SDS011;28680;45.642;13.756;2023-02-15T17:45:11;89.68;;;51.22;;
35646;SDS011;28680;45.642;13.756;2023-02-15T17:47:39;90.40;;;52.67;;
35646;SDS011;28680;45.642;13.756;2023-02-15T17:50:05;92.28;;;52.88;;
35646;SDS011;28680;45.642;13.756;2023-02-15T17:52:40;93.43;;;53.22;;
35646;SDS011;28680;45.642;13.756;2023-02-15T17:55:12;95.88;;;53.97;;
35646;SDS011;28680;45.642;13.756;2023-02-15T17:58:08;92.43;;;53.70;;
35646;SDS011;28680;45.642;13.756;2023-02-15T18:00:43;96.93;;;54.15;;
35646;SDS011;28680;45.642;13.756;2023-02-15T18:03:39;90.87;;;52.03;;
35646;SDS011;28680;45.642;13.756;2023-02-15T18:06:30;88.43;;;52.47;;
35646;SDS011;28680;45.642;13.756;2023-02-15T18:09:17;91.63;;;51.25;;
35646;SDS011;28680;45.642;13.756;2023-02-15T18:12:23;88.38;;;50.83;;
35646;SDS011;28680;45.642;13.756;2023-02-15T18:14:52;87.10;;;49.30;;
35646;SDS011;28680;45.642;13.756;2023-02-15T18:17:18;85.25;;;48.83;;
35646;SDS011;28680;45.642;13.756;2023-02-15T18:19:53;84.88;;;49.50;;
35646;SDS011;28680;45.642;13.756;2023-02-15T18:22:20;84.78;;;50.92;;
35646;SDS011;28680;45.642;13.756;2023-02-15T18:24:47;90.93;;;52.08;;
35646;SDS011;28680;45.642;13.756;2023-02-15T18:27:14;82.82;;;50.78;;
35646;SDS011;28680;45.642;13.756;2023-02-15T18:29:41;92.47;;;53.83;;
35646;SDS011;28680;45.642;13.756;2023-02-15T18:32:14;92.47;;;54.13;;
35646;SDS011;28680;45.642;13.756;2023-02-15T18:34:49;94.88;;;53.10;;
35646;SDS011;28680;45.642;13.756;2023-02-15T18:37:17;88.75;;;52.25;;
35646;SDS011;28680;45.642;13.756;2023-02-15T18:39:49;88.13;;;52.85;;
35646;SDS011;28680;45.642;13.756;2023-02-15T18:42:25;90.72;;;52.83;;
35646;SDS011;28680;45.642;13.756;2023-02-15T18:44:54;88.25;;;51.78;;
35646;SDS011;28680;45.642;13.756;2023-02-15T18:47:26;86.07;;;50.95;;
35646;SDS011;28680;45.642;13.756;2023-02-15T18:49:52;87.43;;;50.72;;